Terminal Aerodrome Forecast
Issued by NWS

Current Version | Previous Version | Text Only | Print | Product List | Glossary On
Versions: 1 2 3 4 5 6 7 8 9 10 11 12 13 14 15 16 17 18 19
000
FTUS43 KTOP 262336
TAFMHK
TAF
KMHK 262336Z 2700/2724 05006KT P6SM VCSH BKN060
      TEMPO 2700/2702 4SM SHRA
     FM270900 01006KT P6SM SCT008 BKN015
     FM271800 02010KT P6SM SCT035=

USA.gov is the U.S. government's official web portal to all federal, state and local government web resources and services.